createdAt,value
2022-08-05T00:23:44.313Z,6.30
2022-08-05T00:54:02.086Z,5.83
2022-08-05T01:24:13.145Z,6.07
2022-08-05T01:54:17.967Z,6.03
2022-08-05T02:24:23.163Z,5.87
2022-08-05T02:54:35.740Z,6.50
2022-08-05T03:24:40.179Z,6.30
2022-08-05T03:55:50.016Z,6.30
2022-08-05T04:25:10.979Z,7.50
2022-08-05T04:55:15.058Z,6.90
2022-08-05T05:25:19.101Z,6.97
2022-08-05T05:55:21.843Z,5.90
2022-08-05T06:26:13.405Z,5.57
2022-08-05T06:55:48.085Z,6.37
2022-08-05T07:25:56.434Z,5.33
2022-08-05T07:56:06.549Z,5.23
2022-08-05T08:26:29.434Z,4.90
2022-08-05T08:56:33.397Z,5.10
2022-08-05T09:26:36.975Z,4.70
2022-08-05T09:56:40.810Z,4.53
2022-08-05T10:26:55.107Z,4.10
2022-08-05T10:57:03.929Z,4.00
2022-08-05T11:27:06.862Z,3.60
2022-08-05T11:57:25.363Z,3.90
2022-08-05T12:27:32.792Z,3.43
2022-08-05T12:58:48.312Z,3.93
2022-08-05T13:28:00.770Z,4.00
2022-08-05T13:58:08.235Z,4.07
2022-08-05T14:28:26.059Z,3.87
2022-08-05T14:58:30.366Z,3.80
2022-08-05T15:28:33.196Z,4.00
2022-08-05T15:58:37.169Z,8.10
2022-08-05T16:28:41.232Z,7.37
2022-08-05T16:58:44.395Z,3.63
2022-08-05T17:28:47.929Z,3.77
2022-08-05T17:58:51.200Z,4.80
2022-08-05T18:28:56.327Z,4.77
2022-08-05T18:59:00.985Z,4.50
2022-08-05T19:29:06.976Z,4.17
2022-08-05T19:59:53.956Z,5.03
2022-08-05T20:29:33.770Z,5.27
2022-08-05T21:00:11.057Z,6.93
2022-08-05T21:30:02.689Z,7.17
2022-08-05T22:00:10.669Z,5.70
2022-08-05T22:30:14.904Z,6.27
2022-08-05T23:00:20.728Z,7.55
2022-08-05T23:30:27.172Z,6.67
